sensor_id;sensor_type;location;lat;lon;timestamp;P1;durP1;ratioP1;P2;durP2;ratioP2
65315;SDS011;51920;53.952;10.292;2022-08-19T00:01:07;23.00;;;13.80;;
65315;SDS011;51920;53.952;10.292;2022-08-19T00:03:33;21.33;;;13.73;;
65315;SDS011;51920;53.952;10.292;2022-08-19T00:05:58;23.17;;;14.40;;
65315;SDS011;51920;53.952;10.292;2022-08-19T00:08:24;23.30;;;14.43;;
65315;SDS011;51920;53.952;10.292;2022-08-19T00:10:49;25.70;;;14.30;;
65315;SDS011;51920;53.952;10.292;2022-08-19T00:13:15;27.67;;;14.77;;
65315;SDS011;51920;53.952;10.292;2022-08-19T00:15:40;26.73;;;15.20;;
65315;SDS011;51920;53.952;10.292;2022-08-19T00:18:09;27.40;;;14.80;;
65315;SDS011;51920;53.952;10.292;2022-08-19T00:20:35;24.02;;;13.77;;
65315;SDS011;51920;53.952;10.292;2022-08-19T00:23:02;28.33;;;14.20;;
65315;SDS011;51920;53.952;10.292;2022-08-19T00:25:28;29.67;;;14.27;;
65315;SDS011;51920;53.952;10.292;2022-08-19T00:27:53;25.73;;;14.77;;
65315;SDS011;51920;53.952;10.292;2022-08-19T00:30:19;26.23;;;15.03;;
65315;SDS011;51920;53.952;10.292;2022-08-19T00:32:44;26.57;;;15.37;;
65315;SDS011;51920;53.952;10.292;2022-08-19T00:35:10;26.30;;;14.57;;
65315;SDS011;51920;53.952;10.292;2022-08-19T00:37:35;26.38;;;14.52;;
65315;SDS011;51920;53.952;10.292;2022-08-19T00:40:03;28.35;;;15.48;;
65315;SDS011;51920;53.952;10.292;2022-08-19T00:42:31;29.63;;;15.00;;
65315;SDS011;51920;53.952;10.292;2022-08-19T00:44:56;29.48;;;15.05;;
65315;SDS011;51920;53.952;10.292;2022-08-19T00:47:22;34.37;;;14.93;;
65315;SDS011;51920;53.952;10.292;2022-08-19T00:49:48;29.63;;;15.13;;
65315;SDS011;51920;53.952;10.292;2022-08-19T00:52:27;25.60;;;14.70;;
65315;SDS011;51920;53.952;10.292;2022-08-19T00:54:57;25.73;;;14.15;;
65315;SDS011;51920;53.952;10.292;2022-08-19T00:57:26;28.52;;;15.20;;
65315;SDS011;51920;53.952;10.292;2022-08-19T00:59:58;25.85;;;14.95;;
65315;SDS011;51920;53.952;10.292;2022-08-19T01:02:25;27.58;;;15.00;;
65315;SDS011;51920;53.952;10.292;2022-08-19T01:04:52;29.40;;;15.47;;
65315;SDS011;51920;53.952;10.292;2022-08-19T01:07:18;28.70;;;14.43;;
65315;SDS011;51920;53.952;10.292;2022-08-19T01:09:43;26.43;;;14.07;;
65315;SDS011;51920;53.952;10.292;2022-08-19T01:12:09;29.17;;;15.10;;
65315;SDS011;51920;53.952;10.292;2022-08-19T01:14:34;31.43;;;15.57;;
65315;SDS011;51920;53.952;10.292;2022-08-19T01:17:02;28.05;;;14.70;;
65315;SDS011;51920;53.952;10.292;2022-08-19T01:19:30;27.88;;;14.80;;
65315;SDS011;51920;53.952;10.292;2022-08-19T01:22:06;28.30;;;14.57;;
65315;SDS011;51920;53.952;10.292;2022-08-19T01:24:37;28.33;;;14.48;;
65315;SDS011;51920;53.952;10.292;2022-08-19T01:27:06;25.83;;;14.60;;
65315;SDS011;51920;53.952;10.292;2022-08-19T01:29:33;31.30;;;15.23;;
65315;SDS011;51920;53.952;10.292;2022-08-19T01:32:03;29.80;;;14.50;;
65315;SDS011;51920;53.952;10.292;2022-08-19T01:34:29;28.58;;;14.60;;
65315;SDS011;51920;53.952;10.292;2022-08-19T01:36:55;30.40;;;14.63;;
65315;SDS011;51920;53.952;10.292;2022-08-19T01:39:22;26.90;;;14.20;;
65315;SDS011;51920;53.952;10.292;2022-08-19T01:41:49;28.42;;;13.75;;
65315;SDS011;51920;53.952;10.292;2022-08-19T01:44:15;28.05;;;14.20;;
65315;SDS011;51920;53.952;10.292;2022-08-19T01:46:41;28.95;;;13.82;;
65315;SDS011;51920;53.952;10.292;2022-08-19T01:49:08;25.43;;;13.47;;
65315;SDS011;51920;53.952;10.292;2022-08-19T01:51:33;29.30;;;14.43;;
65315;SDS011;51920;53.952;10.292;2022-08-19T01:54:00;25.25;;;13.95;;
65315;SDS011;51920;53.952;10.292;2022-08-19T01:56:26;27.65;;;14.35;;
65315;SDS011;51920;53.952;10.292;2022-08-19T01:58:57;30.67;;;14.60;;
65315;SDS011;51920;53.952;10.292;2022-08-19T02:01:26;31.70;;;14.45;;
65315;SDS011;51920;53.952;10.292;2022-08-19T02:03:52;25.70;;;13.80;;
65315;SDS011;51920;53.952;10.292;2022-08-19T02:06:19;26.30;;;14.02;;
65315;SDS011;51920;53.952;10.292;2022-08-19T02:08:45;30.52;;;14.00;;
65315;SDS011;51920;53.952;10.292;2022-08-19T02:11:18;25.53;;;13.87;;
65315;SDS011;51920;53.952;10.292;2022-08-19T02:13:46;28.90;;;14.20;;
65315;SDS011;51920;53.952;10.292;2022-08-19T02:16:12;26.30;;;14.10;;
65315;SDS011;51920;53.952;10.292;2022-08-19T02:18:37;28.13;;;13.87;;
65315;SDS011;51920;53.952;10.292;2022-08-19T02:21:02;25.67;;;14.00;;
65315;SDS011;51920;53.952;10.292;2022-08-19T02:23:28;27.97;;;14.03;;
65315;SDS011;51920;53.952;10.292;2022-08-19T02:25:53;24.80;;;13.90;;
65315;SDS011;51920;53.952;10.292;2022-08-19T02:28:19;28.00;;;14.60;;
65315;SDS011;51920;53.952;10.292;2022-08-19T02:30:45;28.57;;;13.93;;
65315;SDS011;51920;53.952;10.292;2022-08-19T02:33:11;27.17;;;13.70;;
65315;SDS011;51920;53.952;10.292;2022-08-19T02:35:40;24.87;;;13.60;;
65315;SDS011;51920;53.952;10.292;2022-08-19T02:38:06;27.23;;;14.63;;
65315;SDS011;51920;53.952;10.292;2022-08-19T02:40:50;29.73;;;13.52;;
65315;SDS011;51920;53.952;10.292;2022-08-19T02:43:18;28.65;;;14.07;;
65315;SDS011;51920;53.952;10.292;2022-08-19T02:45:47;29.57;;;13.87;;
65315;SDS011;51920;53.952;10.292;2022-08-19T02:48:14;27.75;;;13.82;;
65315;SDS011;51920;53.952;10.292;2022-08-19T02:50:42;27.05;;;14.10;;
65315;SDS011;51920;53.952;10.292;2022-08-19T02:53:08;31.48;;;15.02;;
65315;SDS011;51920;53.952;10.292;2022-08-19T02:55:34;24.15;;;13.73;;
65315;SDS011;51920;53.952;10.292;2022-08-19T02:58:00;27.03;;;13.43;;
65315;SDS011;51920;53.952;10.292;2022-08-19T03:00:26;26.95;;;14.32;;
65315;SDS011;51920;53.952;10.292;2022-08-19T03:02:52;29.73;;;14.67;;
65315;SDS011;51920;53.952;10.292;2022-08-19T03:05:18;31.73;;;15.17;;
65315;SDS011;51920;53.952;10.292;2022-08-19T03:07:43;28.17;;;14.50;;
65315;SDS011;51920;53.952;10.292;2022-08-19T03:10:09;30.90;;;15.07;;
65315;SDS011;51920;53.952;10.292;2022-08-19T03:12:35;32.20;;;15.03;;
65315;SDS011;51920;53.952;10.292;2022-08-19T03:15:03;32.75;;;15.35;;
65315;SDS011;51920;53.952;10.292;2022-08-19T03:17:30;29.33;;;16.02;;
65315;SDS011;51920;53.952;10.292;2022-08-19T03:19:55;30.67;;;15.10;;
65315;SDS011;51920;53.952;10.292;2022-08-19T03:22:22;33.47;;;16.13;;
65315;SDS011;51920;53.952;10.292;2022-08-19T03:24:47;32.63;;;15.67;;
65315;SDS011;51920;53.952;10.292;2022-08-19T03:27:12;37.30;;;16.43;;
65315;SDS011;51920;53.952;10.292;2022-08-19T03:29:39;37.78;;;16.70;;
65315;SDS011;51920;53.952;10.292;2022-08-19T03:32:05;36.80;;;17.33;;
65315;SDS011;51920;53.952;10.292;2022-08-19T03:34:31;37.30;;;16.60;;
65315;SDS011;51920;53.952;10.292;2022-08-19T03:37:01;33.40;;;15.35;;
65315;SDS011;51920;53.952;10.292;2022-08-19T03:39:31;34.33;;;15.45;;
65315;SDS011;51920;53.952;10.292;2022-08-19T03:41:56;37.33;;;16.87;;
65315;SDS011;51920;53.952;10.292;2022-08-19T03:44:28;35.63;;;15.38;;
65315;SDS011;51920;53.952;10.292;2022-08-19T03:46:55;34.92;;;16.60;;
65315;SDS011;51920;53.952;10.292;2022-08-19T03:49:23;32.65;;;15.57;;
65315;SDS011;51920;53.952;10.292;2022-08-19T03:51:50;39.38;;;16.92;;
65315;SDS011;51920;53.952;10.292;2022-08-19T03:54:17;39.83;;;17.37;;
65315;SDS011;51920;53.952;10.292;2022-08-19T03:56:45;37.70;;;16.23;;
65315;SDS011;51920;53.952;10.292;2022-08-19T03:59:13;39.15;;;16.05;;
65315;SDS011;51920;53.952;10.292;2022-08-19T04:01:41;40.00;;;16.80;;
65315;SDS011;51920;53.952;10.292;2022-08-19T04:04:09;37.60;;;15.97;;
65315;SDS011;51920;53.952;10.292;2022-08-19T04:06:35;39.30;;;16.90;;
65315;SDS011;51920;53.952;10.292;2022-08-19T04:09:04;38.58;;;17.05;;
65315;SDS011;51920;53.952;10.292;2022-08-19T04:11:34;37.50;;;16.40;;
65315;SDS011;51920;53.952;10.292;2022-08-19T04:14:04;37.87;;;15.63;;
65315;SDS011;51920;53.952;10.292;2022-08-19T04:16:29;34.42;;;15.48;;
65315;SDS011;51920;53.952;10.292;2022-08-19T04:18:55;41.23;;;17.70;;
65315;SDS011;51920;53.952;10.292;2022-08-19T04:21:25;37.97;;;17.40;;
65315;SDS011;51920;53.952;10.292;2022-08-19T04:23:51;34.05;;;15.88;;
65315;SDS011;51920;53.952;10.292;2022-08-19T04:26:18;41.00;;;17.77;;
65315;SDS011;51920;53.952;10.292;2022-08-19T04:28:46;38.08;;;17.63;;
65315;SDS011;51920;53.952;10.292;2022-08-19T04:31:16;46.58;;;18.38;;
65315;SDS011;51920;53.952;10.292;2022-08-19T04:33:53;49.08;;;19.17;;
65315;SDS011;51920;53.952;10.292;2022-08-19T04:36:44;49.25;;;18.63;;
65315;SDS011;51920;53.952;10.292;2022-08-19T04:39:14;48.90;;;19.00;;
65315;SDS011;51920;53.952;10.292;2022-08-19T04:41:41;46.08;;;18.30;;
65315;SDS011;51920;53.952;10.292;2022-08-19T04:44:25;44.40;;;17.75;;
65315;SDS011;51920;53.952;10.292;2022-08-19T04:46:50;41.40;;;17.33;;
65315;SDS011;51920;53.952;10.292;2022-08-19T04:49:17;43.90;;;18.27;;
65315;SDS011;51920;53.952;10.292;2022-08-19T04:51:45;41.55;;;17.63;;
65315;SDS011;51920;53.952;10.292;2022-08-19T04:54:12;46.25;;;19.30;;
65315;SDS011;51920;53.952;10.292;2022-08-19T04:56:42;47.37;;;18.73;;
65315;SDS011;51920;53.952;10.292;2022-08-19T04:59:09;46.00;;;18.65;;
65315;SDS011;51920;53.952;10.292;2022-08-19T05:01:35;46.15;;;18.38;;
65315;SDS011;51920;53.952;10.292;2022-08-19T05:04:02;41.58;;;17.75;;
65315;SDS011;51920;53.952;10.292;2022-08-19T05:06:30;46.33;;;18.20;;
65315;SDS011;51920;53.952;10.292;2022-08-19T05:08:57;47.13;;;18.53;;
65315;SDS011;51920;53.952;10.292;2022-08-19T05:11:28;44.05;;;18.30;;
65315;SDS011;51920;53.952;10.292;2022-08-19T05:13:56;41.42;;;17.85;;
65315;SDS011;51920;53.952;10.292;2022-08-19T05:16:22;40.55;;;17.90;;
65315;SDS011;51920;53.952;10.292;2022-08-19T05:18:49;45.08;;;18.33;;
65315;SDS011;51920;53.952;10.292;2022-08-19T05:21:33;43.20;;;17.67;;
65315;SDS011;51920;53.952;10.292;2022-08-19T05:24:19;44.08;;;18.23;;
65315;SDS011;51920;53.952;10.292;2022-08-19T05:26:47;40.45;;;18.05;;
65315;SDS011;51920;53.952;10.292;2022-08-19T05:29:15;42.67;;;18.40;;
65315;SDS011;51920;53.952;10.292;2022-08-19T05:31:43;40.60;;;18.80;;
65315;SDS011;51920;53.952;10.292;2022-08-19T05:34:09;43.33;;;18.17;;
65315;SDS011;51920;53.952;10.292;2022-08-19T05:36:39;46.47;;;18.08;;
65315;SDS011;51920;53.952;10.292;2022-08-19T05:39:08;48.58;;;19.23;;
65315;SDS011;51920;53.952;10.292;2022-08-19T05:41:46;48.30;;;18.90;;
65315;SDS011;51920;53.952;10.292;2022-08-19T05:44:15;48.70;;;19.07;;
65315;SDS011;51920;53.952;10.292;2022-08-19T05:46:42;45.20;;;18.92;;
65315;SDS011;51920;53.952;10.292;2022-08-19T05:49:12;50.55;;;19.67;;
65315;SDS011;51920;53.952;10.292;2022-08-19T05:51:38;46.67;;;19.13;;
65315;SDS011;51920;53.952;10.292;2022-08-19T05:54:04;48.63;;;19.23;;
65315;SDS011;51920;53.952;10.292;2022-08-19T05:56:32;44.75;;;18.52;;
65315;SDS011;51920;53.952;10.292;2022-08-19T05:58:59;44.63;;;18.75;;
65315;SDS011;51920;53.952;10.292;2022-08-19T06:01:26;46.97;;;19.60;;
65315;SDS011;51920;53.952;10.292;2022-08-19T06:03:52;49.57;;;19.20;;
65315;SDS011;51920;53.952;10.292;2022-08-19T06:06:17;51.20;;;18.90;;
65315;SDS011;51920;53.952;10.292;2022-08-19T06:08:44;52.77;;;20.47;;
65315;SDS011;51920;53.952;10.292;2022-08-19T06:11:20;55.83;;;20.38;;
65315;SDS011;51920;53.952;10.292;2022-08-19T06:13:50;51.45;;;19.92;;
65315;SDS011;51920;53.952;10.292;2022-08-19T06:16:19;48.10;;;19.60;;
65315;SDS011;51920;53.952;10.292;2022-08-19T06:18:51;47.92;;;18.85;;
65315;SDS011;51920;53.952;10.292;2022-08-19T06:21:19;54.17;;;19.80;;
65315;SDS011;51920;53.952;10.292;2022-08-19T06:23:50;52.40;;;19.98;;
65315;SDS011;51920;53.952;10.292;2022-08-19T06:26:16;51.75;;;20.05;;
65315;SDS011;51920;53.952;10.292;2022-08-19T06:28:43;50.65;;;19.58;;
65315;SDS011;51920;53.952;10.292;2022-08-19T06:31:29;58.28;;;21.08;;
65315;SDS011;51920;53.952;10.292;2022-08-19T06:33:58;49.53;;;19.03;;
65315;SDS011;51920;53.952;10.292;2022-08-19T06:36:28;59.63;;;21.38;;
65315;SDS011;51920;53.952;10.292;2022-08-19T06:42:00;55.15;;;21.13;;
65315;SDS011;51920;53.952;10.292;2022-08-19T06:44:29;55.35;;;20.25;;
65315;SDS011;51920;53.952;10.292;2022-08-19T06:47:00;56.87;;;20.80;;
65315;SDS011;51920;53.952;10.292;2022-08-19T06:49:28;62.10;;;20.85;;
65315;SDS011;51920;53.952;10.292;2022-08-19T06:51:57;61.80;;;21.75;;
65315;SDS011;51920;53.952;10.292;2022-08-19T06:54:23;53.17;;;19.98;;
65315;SDS011;51920;53.952;10.292;2022-08-19T06:56:50;57.63;;;20.85;;
65315;SDS011;51920;53.952;10.292;2022-08-19T06:59:20;55.90;;;19.90;;
65315;SDS011;51920;53.952;10.292;2022-08-19T07:01:48;58.88;;;21.15;;
65315;SDS011;51920;53.952;10.292;2022-08-19T07:04:16;60.20;;;20.88;;
65315;SDS011;51920;53.952;10.292;2022-08-19T07:06:43;57.03;;;21.20;;
65315;SDS011;51920;53.952;10.292;2022-08-19T07:09:09;55.10;;;20.60;;
65315;SDS011;51920;53.952;10.292;2022-08-19T07:11:37;57.65;;;20.40;;
65315;SDS011;51920;53.952;10.292;2022-08-19T07:14:03;53.83;;;19.57;;
65315;SDS011;51920;53.952;10.292;2022-08-19T07:16:30;58.53;;;21.30;;
65315;SDS011;51920;53.952;10.292;2022-08-19T07:18:55;58.40;;;20.80;;
65315;SDS011;51920;53.952;10.292;2022-08-19T07:21:23;54.58;;;20.60;;
65315;SDS011;51920;53.952;10.292;2022-08-19T07:23:53;52.53;;;19.92;;
65315;SDS011;51920;53.952;10.292;2022-08-19T07:26:23;54.00;;;20.23;;
65315;SDS011;51920;53.952;10.292;2022-08-19T07:28:51;51.25;;;20.00;;
65315;SDS011;51920;53.952;10.292;2022-08-19T07:31:19;53.27;;;19.80;;
65315;SDS011;51920;53.952;10.292;2022-08-19T07:33:47;61.55;;;20.92;;
65315;SDS011;51920;53.952;10.292;2022-08-19T07:36:15;58.78;;;21.08;;
65315;SDS011;51920;53.952;10.292;2022-08-19T07:38:43;59.35;;;20.98;;
65315;SDS011;51920;53.952;10.292;2022-08-19T07:41:14;60.55;;;21.70;;
65315;SDS011;51920;53.952;10.292;2022-08-19T07:43:42;49.90;;;19.47;;
65315;SDS011;51920;53.952;10.292;2022-08-19T07:46:08;49.00;;;18.90;;
65315;SDS011;51920;53.952;10.292;2022-08-19T07:48:35;50.58;;;19.90;;
65315;SDS011;51920;53.952;10.292;2022-08-19T07:51:02;47.22;;;18.27;;
65315;SDS011;51920;53.952;10.292;2022-08-19T07:53:30;46.13;;;18.85;;
65315;SDS011;51920;53.952;10.292;2022-08-19T07:55:58;48.93;;;19.33;;
65315;SDS011;51920;53.952;10.292;2022-08-19T07:58:29;48.53;;;18.80;;
65315;SDS011;51920;53.952;10.292;2022-08-19T08:00:56;45.97;;;18.45;;
65315;SDS011;51920;53.952;10.292;2022-08-19T08:03:22;50.05;;;19.55;;
65315;SDS011;51920;53.952;10.292;2022-08-19T08:06:08;48.83;;;18.77;;
65315;SDS011;51920;53.952;10.292;2022-08-19T08:08:53;47.50;;;19.10;;
65315;SDS011;51920;53.952;10.292;2022-08-19T08:11:41;45.28;;;18.52;;
65315;SDS011;51920;53.952;10.292;2022-08-19T08:14:13;44.13;;;17.65;;
65315;SDS011;51920;53.952;10.292;2022-08-19T08:16:41;45.25;;;18.45;;
65315;SDS011;51920;53.952;10.292;2022-08-19T08:19:09;45.57;;;18.60;;
65315;SDS011;51920;53.952;10.292;2022-08-19T08:21:35;44.13;;;18.27;;
65315;SDS011;51920;53.952;10.292;2022-08-19T08:24:00;51.40;;;19.47;;
65315;SDS011;51920;53.952;10.292;2022-08-19T08:26:26;48.55;;;19.73;;
65315;SDS011;51920;53.952;10.292;2022-08-19T08:28:52;46.00;;;19.27;;
65315;SDS011;51920;53.952;10.292;2022-08-19T08:31:18;45.47;;;19.23;;
65315;SDS011;51920;53.952;10.292;2022-08-19T08:33:44;50.93;;;19.57;;
65315;SDS011;51920;53.952;10.292;2022-08-19T08:36:10;50.85;;;19.35;;
65315;SDS011;51920;53.952;10.292;2022-08-19T08:38:37;43.42;;;18.63;;
65315;SDS011;51920;53.952;10.292;2022-08-19T08:41:23;42.45;;;17.98;;
65315;SDS011;51920;53.952;10.292;2022-08-19T08:43:53;47.07;;;18.50;;
65315;SDS011;51920;53.952;10.292;2022-08-19T08:46:28;46.42;;;19.02;;
65315;SDS011;51920;53.952;10.292;2022-08-19T08:51:42;46.83;;;19.45;;
65315;SDS011;51920;53.952;10.292;2022-08-19T08:54:13;49.72;;;18.85;;
65315;SDS011;51920;53.952;10.292;2022-08-19T08:56:43;42.70;;;18.53;;
65315;SDS011;51920;53.952;10.292;2022-08-19T08:59:12;42.97;;;18.58;;
65315;SDS011;51920;53.952;10.292;2022-08-19T09:01:48;39.08;;;18.02;;
65315;SDS011;51920;53.952;10.292;2022-08-19T09:04:13;54.10;;;18.90;;
65315;SDS011;51920;53.952;10.292;2022-08-19T09:06:51;42.38;;;18.75;;
65315;SDS011;51920;53.952;10.292;2022-08-19T09:09:30;42.97;;;18.27;;
65315;SDS011;51920;53.952;10.292;2022-08-19T09:17:12;48.37;;;19.33;;
65315;SDS011;51920;53.952;10.292;2022-08-19T09:22:17;43.33;;;19.17;;
65315;SDS011;51920;53.952;10.292;2022-08-19T09:24:45;46.47;;;21.65;;
65315;SDS011;51920;53.952;10.292;2022-08-19T09:27:10;42.40;;;18.60;;
65315;SDS011;51920;53.952;10.292;2022-08-19T09:29:36;42.92;;;18.27;;
65315;SDS011;51920;53.952;10.292;2022-08-19T09:32:01;41.57;;;19.30;;
65315;SDS011;51920;53.952;10.292;2022-08-19T09:34:27;41.40;;;19.00;;
65315;SDS011;51920;53.952;10.292;2022-08-19T09:36:54;41.97;;;19.77;;
65315;SDS011;51920;53.952;10.292;2022-08-19T09:39:23;41.58;;;19.00;;
65315;SDS011;51920;53.952;10.292;2022-08-19T09:41:48;41.67;;;19.77;;
65315;SDS011;51920;53.952;10.292;2022-08-19T09:44:15;40.72;;;18.88;;
65315;SDS011;51920;53.952;10.292;2022-08-19T09:46:40;37.85;;;18.30;;
65315;SDS011;51920;53.952;10.292;2022-08-19T09:49:06;38.30;;;18.40;;
65315;SDS011;51920;53.952;10.292;2022-08-19T09:51:32;39.80;;;18.53;;
65315;SDS011;51920;53.952;10.292;2022-08-19T09:53:59;38.55;;;18.58;;
65315;SDS011;51920;53.952;10.292;2022-08-19T09:56:26;41.40;;;19.17;;
65315;SDS011;51920;53.952;10.292;2022-08-19T09:58:52;38.83;;;18.80;;
65315;SDS011;51920;53.952;10.292;2022-08-19T10:01:22;38.90;;;17.60;;
65315;SDS011;51920;53.952;10.292;2022-08-19T10:03:50;40.55;;;18.30;;
65315;SDS011;51920;53.952;10.292;2022-08-19T10:06:18;37.70;;;18.17;;
65315;SDS011;51920;53.952;10.292;2022-08-19T10:08:44;35.45;;;17.70;;
65315;SDS011;51920;53.952;10.292;2022-08-19T10:11:10;34.83;;;17.83;;
65315;SDS011;51920;53.952;10.292;2022-08-19T10:13:36;33.92;;;16.73;;
65315;SDS011;51920;53.952;10.292;2022-08-19T10:16:06;36.63;;;16.80;;
65315;SDS011;51920;53.952;10.292;2022-08-19T10:18:47;32.42;;;16.27;;
65315;SDS011;51920;53.952;10.292;2022-08-19T10:21:22;34.23;;;17.03;;
65315;SDS011;51920;53.952;10.292;2022-08-19T10:23:51;35.83;;;17.23;;
65315;SDS011;51920;53.952;10.292;2022-08-19T10:26:19;35.47;;;16.92;;
65315;SDS011;51920;53.952;10.292;2022-08-19T10:28:47;31.52;;;16.45;;
65315;SDS011;51920;53.952;10.292;2022-08-19T10:31:20;31.87;;;15.90;;
65315;SDS011;51920;53.952;10.292;2022-08-19T10:33:48;33.92;;;16.27;;
65315;SDS011;51920;53.952;10.292;2022-08-19T10:36:18;34.45;;;16.98;;
65315;SDS011;51920;53.952;10.292;2022-08-19T10:38:46;31.48;;;16.55;;
65315;SDS011;51920;53.952;10.292;2022-08-19T10:41:14;30.23;;;16.05;;
65315;SDS011;51920;53.952;10.292;2022-08-19T10:43:50;34.97;;;17.13;;
65315;SDS011;51920;53.952;10.292;2022-08-19T10:46:19;28.42;;;15.88;;
65315;SDS011;51920;53.952;10.292;2022-08-19T10:48:47;31.05;;;16.27;;
65315;SDS011;51920;53.952;10.292;2022-08-19T10:51:12;30.38;;;15.88;;
65315;SDS011;51920;53.952;10.292;2022-08-19T10:53:56;30.57;;;16.37;;
65315;SDS011;51920;53.952;10.292;2022-08-19T10:56:23;33.35;;;15.85;;
65315;SDS011;51920;53.952;10.292;2022-08-19T10:59:07;29.27;;;15.57;;
65315;SDS011;51920;53.952;10.292;2022-08-19T11:01:33;28.43;;;15.97;;
65315;SDS011;51920;53.952;10.292;2022-08-19T11:04:00;31.05;;;15.90;;
65315;SDS011;51920;53.952;10.292;2022-08-19T11:06:27;30.85;;;16.20;;
65315;SDS011;51920;53.952;10.292;2022-08-19T11:08:53;28.93;;;15.30;;
65315;SDS011;51920;53.952;10.292;2022-08-19T11:11:19;28.20;;;15.63;;
65315;SDS011;51920;53.952;10.292;2022-08-19T11:13:46;30.27;;;15.88;;
65315;SDS011;51920;53.952;10.292;2022-08-19T11:16:16;28.92;;;16.27;;
65315;SDS011;51920;53.952;10.292;2022-08-19T11:18:43;31.00;;;15.95;;
65315;SDS011;51920;53.952;10.292;2022-08-19T11:21:22;25.70;;;14.83;;
65315;SDS011;51920;53.952;10.292;2022-08-19T11:23:53;25.13;;;13.98;;
65315;SDS011;51920;53.952;10.292;2022-08-19T11:26:21;23.10;;;13.73;;
65315;SDS011;51920;53.952;10.292;2022-08-19T11:28:46;26.10;;;15.18;;
65315;SDS011;51920;53.952;10.292;2022-08-19T11:31:18;28.77;;;15.17;;
65315;SDS011;51920;53.952;10.292;2022-08-19T11:33:45;24.27;;;13.82;;
65315;SDS011;51920;53.952;10.292;2022-08-19T11:36:11;24.20;;;14.13;;
65315;SDS011;51920;53.952;10.292;2022-08-19T11:38:37;25.23;;;14.97;;
65315;SDS011;51920;53.952;10.292;2022-08-19T11:41:04;24.35;;;14.00;;
65315;SDS011;51920;53.952;10.292;2022-08-19T11:43:33;25.48;;;14.35;;
65315;SDS011;51920;53.952;10.292;2022-08-19T11:45:59;27.02;;;15.23;;
65315;SDS011;51920;53.952;10.292;2022-08-19T11:48:26;23.13;;;15.00;;
65315;SDS011;51920;53.952;10.292;2022-08-19T11:50:52;25.92;;;15.02;;
65315;SDS011;51920;53.952;10.292;2022-08-19T11:53:20;23.57;;;14.07;;
65315;SDS011;51920;53.952;10.292;2022-08-19T11:55:46;24.70;;;15.10;;
65315;SDS011;51920;53.952;10.292;2022-08-19T11:58:12;25.10;;;15.35;;
65315;SDS011;51920;53.952;10.292;2022-08-19T12:00:39;26.93;;;15.60;;
65315;SDS011;51920;53.952;10.292;2022-08-19T12:03:05;25.83;;;15.23;;
65315;SDS011;51920;53.952;10.292;2022-08-19T12:05:30;29.25;;;16.08;;
65315;SDS011;51920;53.952;10.292;2022-08-19T12:07:56;25.60;;;15.80;;
65315;SDS011;51920;53.952;10.292;2022-08-19T12:10:21;25.37;;;14.63;;
65315;SDS011;51920;53.952;10.292;2022-08-19T12:12:48;26.65;;;14.75;;
65315;SDS011;51920;53.952;10.292;2022-08-19T12:15:13;20.90;;;14.03;;
65315;SDS011;51920;53.952;10.292;2022-08-19T12:17:39;23.88;;;14.55;;
65315;SDS011;51920;53.952;10.292;2022-08-19T12:20:06;24.77;;;14.83;;
65315;SDS011;51920;53.952;10.292;2022-08-19T12:22:35;23.02;;;14.57;;
65315;SDS011;51920;53.952;10.292;2022-08-19T12:25:00;22.30;;;13.75;;
65315;SDS011;51920;53.952;10.292;2022-08-19T12:27:26;21.67;;;12.83;;
65315;SDS011;51920;53.952;10.292;2022-08-19T12:29:51;21.23;;;13.82;;
65315;SDS011;51920;53.952;10.292;2022-08-19T12:32:17;19.07;;;12.63;;
65315;SDS011;51920;53.952;10.292;2022-08-19T12:34:42;19.27;;;12.50;;
65315;SDS011;51920;53.952;10.292;2022-08-19T12:37:08;20.20;;;13.37;;
65315;SDS011;51920;53.952;10.292;2022-08-19T12:39:38;17.10;;;12.15;;
65315;SDS011;51920;53.952;10.292;2022-08-19T12:42:06;18.58;;;12.88;;
65315;SDS011;51920;53.952;10.292;2022-08-19T12:44:33;19.00;;;13.20;;
65315;SDS011;51920;53.952;10.292;2022-08-19T12:46:58;18.60;;;12.83;;
65315;SDS011;51920;53.952;10.292;2022-08-19T12:49:24;18.63;;;12.90;;
65315;SDS011;51920;53.952;10.292;2022-08-19T12:51:49;20.73;;;13.30;;
65315;SDS011;51920;53.952;10.292;2022-08-19T12:54:15;20.17;;;13.60;;
65315;SDS011;51920;53.952;10.292;2022-08-19T12:56:40;19.92;;;13.93;;
65315;SDS011;51920;53.952;10.292;2022-08-19T12:59:07;18.30;;;13.60;;
65315;SDS011;51920;53.952;10.292;2022-08-19T13:01:33;19.10;;;12.63;;
65315;SDS011;51920;53.952;10.292;2022-08-19T13:03:59;16.65;;;12.48;;
65315;SDS011;51920;53.952;10.292;2022-08-19T13:06:25;19.70;;;12.83;;
65315;SDS011;51920;53.952;10.292;2022-08-19T13:08:51;16.55;;;12.18;;
65315;SDS011;51920;53.952;10.292;2022-08-19T13:11:18;20.83;;;13.93;;
65315;SDS011;51920;53.952;10.292;2022-08-19T13:13:45;21.13;;;13.67;;
65315;SDS011;51920;53.952;10.292;2022-08-19T13:16:13;19.35;;;13.68;;
65315;SDS011;51920;53.952;10.292;2022-08-19T13:18:39;21.25;;;14.63;;
65315;SDS011;51920;53.952;10.292;2022-08-19T13:21:07;19.35;;;13.43;;
65315;SDS011;51920;53.952;10.292;2022-08-19T13:23:34;19.02;;;12.90;;
65315;SDS011;51920;53.952;10.292;2022-08-19T13:26:02;17.73;;;12.77;;
65315;SDS011;51920;53.952;10.292;2022-08-19T13:28:29;18.77;;;13.30;;
65315;SDS011;51920;53.952;10.292;2022-08-19T13:31:16;18.08;;;12.93;;
65315;SDS011;51920;53.952;10.292;2022-08-19T13:34:06;17.20;;;12.60;;
65315;SDS011;51920;53.952;10.292;2022-08-19T13:36:32;17.67;;;12.30;;
65315;SDS011;51920;53.952;10.292;2022-08-19T13:38:59;17.47;;;12.37;;
65315;SDS011;51920;53.952;10.292;2022-08-19T13:41:25;17.50;;;12.93;;
65315;SDS011;51920;53.952;10.292;2022-08-19T13:43:51;17.33;;;12.90;;
65315;SDS011;51920;53.952;10.292;2022-08-19T13:46:17;17.60;;;13.03;;
65315;SDS011;51920;53.952;10.292;2022-08-19T13:48:44;17.23;;;12.50;;
65315;SDS011;51920;53.952;10.292;2022-08-19T13:51:10;19.90;;;13.30;;
65315;SDS011;51920;53.952;10.292;2022-08-19T13:53:36;17.63;;;12.70;;
65315;SDS011;51920;53.952;10.292;2022-08-19T13:56:06;17.40;;;12.00;;
65315;SDS011;51920;53.952;10.292;2022-08-19T13:58:33;19.23;;;13.32;;
65315;SDS011;51920;53.952;10.292;2022-08-19T14:00:58;20.90;;;13.30;;
65315;SDS011;51920;53.952;10.292;2022-08-19T14:03:24;20.13;;;13.40;;
65315;SDS011;51920;53.952;10.292;2022-08-19T14:05:50;17.60;;;12.20;;
65315;SDS011;51920;53.952;10.292;2022-08-19T14:08:16;21.08;;;15.18;;
65315;SDS011;51920;53.952;10.292;2022-08-19T14:10:43;15.77;;;11.57;;
65315;SDS011;51920;53.952;10.292;2022-08-19T14:13:14;16.67;;;11.32;;
65315;SDS011;51920;53.952;10.292;2022-08-19T14:15:42;17.08;;;11.80;;
65315;SDS011;51920;53.952;10.292;2022-08-19T14:18:07;17.10;;;11.67;;
65315;SDS011;51920;53.952;10.292;2022-08-19T14:20:36;15.33;;;11.63;;
65315;SDS011;51920;53.952;10.292;2022-08-19T14:23:02;17.20;;;12.05;;
65315;SDS011;51920;53.952;10.292;2022-08-19T14:25:30;17.80;;;11.35;;
65315;SDS011;51920;53.952;10.292;2022-08-19T14:27:57;18.63;;;12.07;;